Time;durP1;ratioP1;P1;durP2;ratioP2;P2;SDS_P1;SDS_P2;PMS_P1;PMS_P2;Temp;Humidity;BMP_temperature;BMP_pressure;BME280_temperature;BME280_humidity;BME280_pressure;Samples;Min_cycle;Max_cycle;Signal;HPM_P1;HPM_P2
2021/09/12 00:00:08;;;;;;;5.03;3.13;;;;;;;22.61;61.91;101750.34;5015412;28;20030;-74
2021/09/12 00:02:34;;;;;;;4.57;3.05;;;;;;;22.60;62.27;101748.59;5032985;28;20391;-74
2021/09/12 00:04:59;;;;;;;5.10;3.33;;;;;;;22.62;61.86;101745.06;4998964;28;20021;-74
2021/09/12 00:07:24;;;;;;;4.30;2.78;;;;;;;22.62;61.73;101742.44;5033159;28;20030;-74
2021/09/12 00:09:50;;;;;;;4.45;3.03;;;;;;;22.62;61.83;101741.56;4999027;28;20128;-73
2021/09/12 00:12:16;;;;;;;4.40;2.47;;;;;;;22.60;61.81;101738.06;5018655;28;20029;-74
2021/09/12 00:14:42;;;;;;;4.13;2.83;;;;;;;22.60;61.93;101736.28;5036977;28;20037;-74
2021/09/12 00:17:08;;;;;;;5.32;3.20;;;;;;;22.62;61.76;101733.66;5036872;28;20064;-74
2021/09/12 00:19:33;;;;;;;3.30;2.50;;;;;;;22.59;61.82;101731.91;5019234;28;20033;-74
2021/09/12 00:21:58;;;;;;;3.33;2.92;;;;;;;22.61;62.05;101734.53;5036880;28;20025;-74
2021/09/12 00:24:27;;;;;;;5.95;2.80;;;;;;;22.62;61.91;101725.75;5019118;28;20079;-74
2021/09/12 00:26:52;;;;;;;5.30;3.10;;;;;;;22.61;61.95;101732.78;5036690;28;20477;-74
2021/09/12 00:29:20;;;;;;;3.28;2.47;;;;;;;22.59;61.68;101731.06;5019128;28;20040;-73
2021/09/12 00:31:45;;;;;;;3.47;2.65;;;;;;;22.60;61.96;101724.88;5036556;28;20041;-74
2021/09/12 00:34:10;;;;;;;4.90;2.85;;;;;;;22.58;61.87;101716.13;5018900;28;20025;-74
2021/09/12 00:36:36;;;;;;;5.93;2.45;;;;;;;22.57;61.86;101717.88;5018833;28;20132;-74
2021/09/12 00:39:01;;;;;;;3.63;2.88;;;;;;;22.61;61.98;101726.63;5018703;28;20450;-74
2021/09/12 00:41:32;;;;;;;4.25;2.70;;;;;;;22.61;61.76;101722.22;5018848;28;20029;-74
2021/09/12 00:44:00;;;;;;;3.75;2.33;;;;;;;22.56;61.91;101717.91;5036229;28;20129;-74
2021/09/12 00:46:26;;;;;;;4.43;2.90;;;;;;;22.56;61.98;101721.41;5036449;28;20079;-74
2021/09/12 00:48:51;;;;;;;4.55;3.05;;;;;;;22.56;61.99;101713.50;5002374;28;20053;-74
2021/09/12 00:51:16;;;;;;;4.60;2.72;;;;;;;22.56;61.92;101716.13;5002190;28;20021;-74
2021/09/12 00:53:45;;;;;;;3.67;2.47;;;;;;;22.55;61.65;101711.75;5003165;28;20017;-74
2021/09/12 00:56:12;;;;;;;5.03;2.65;;;;;;;22.59;61.85;101717.88;5054866;28;20036;-74
2021/09/12 00:58:40;;;;;;;4.60;3.13;;;;;;;22.58;61.77;101727.53;5056329;28;20021;-74
2021/09/12 01:01:06;;;;;;;4.10;2.83;;;;;;;22.59;62.07;101717.88;5056011;28;20112;-74
2021/09/12 01:03:31;;;;;;;6.28;3.30;;;;;;;22.59;61.95;101725.78;5055861;28;20099;-74
2021/09/12 01:05:57;;;;;;;4.43;2.70;;;;;;;22.55;61.98;101719.66;5054832;28;20075;-74
2021/09/12 01:08:22;;;;;;;4.00;2.67;;;;;;;22.54;62.81;101720.53;5038287;28;20032;-74
2021/09/12 01:10:48;;;;;;;2.85;2.25;;;;;;;22.51;62.01;101703.88;5021663;28;20121;-74
2021/09/12 01:13:14;;;;;;;4.22;2.28;;;;;;;22.57;62.06;101714.38;5054756;28;20048;-74
2021/09/12 01:15:39;;;;;;;4.18;2.70;;;;;;;22.55;62.16;101706.47;5038129;28;20474;-74
2021/09/12 01:18:04;;;;;;;6.03;3.15;;;;;;;22.53;61.86;101716.16;5056030;28;20107;-74
2021/09/12 01:20:30;;;;;;;2.80;2.30;;;;;;;22.57;62.19;101714.38;5028057;28;20040;-74
2021/09/12 01:22:55;;;;;;;5.03;2.50;;;;;;;22.56;61.95;101717.91;5028087;28;20451;-74
2021/09/12 01:25:21;;;;;;;6.75;2.65;;;;;;;22.52;61.95;101703.84;5020921;28;20469;-74
2021/09/12 01:27:46;;;;;;;5.20;2.40;;;;;;;22.55;61.88;101706.47;5005658;28;20060;-74
2021/09/12 01:30:12;;;;;;;3.53;2.35;;;;;;;22.55;61.91;101708.25;5025046;28;20036;-74
2021/09/12 01:32:38;;;;;;;5.68;3.10;;;;;;;22.55;61.90;101711.75;5057632;28;20025;-74
2021/09/12 01:35:04;;;;;;;2.38;1.63;;;;;;;22.56;61.93;101715.25;5038024;28;20336;-74
2021/09/12 01:37:30;;;;;;;5.00;3.05;;;;;;;22.46;62.09;101704.75;5054207;28;20524;-74
2021/09/12 01:39:55;;;;;;;3.40;2.45;;;;;;;22.54;62.40;101722.31;5055375;28;20021;-73
2021/09/12 01:42:21;;;;;;;4.80;2.50;;;;;;;22.53;61.99;101724.06;5055332;28;20125;-73
2021/09/12 01:44:48;;;;;;;4.45;2.50;;;;;;;22.54;62.38;101727.56;5054154;28;20025;-74
2021/09/12 01:47:14;;;;;;;3.95;2.53;;;;;;;22.52;62.16;101721.44;5055604;28;20021;-74
2021/09/12 01:49:41;;;;;;;3.85;2.42;;;;;;;22.53;62.11;101725.81;5058257;28;20064;-74
2021/09/12 01:52:10;;;;;;;8.40;3.50;;;;;;;22.53;62.27;101723.19;5058814;28;20025;-74
2021/09/12 01:54:36;;;;;;;4.68;2.58;;;;;;;22.54;62.37;101727.56;5059015;28;20032;-74
2021/09/12 01:57:01;;;;;;;6.03;2.45;;;;;;;22.46;62.37;101712.66;5007274;28;20025;-74
2021/09/12 01:59:26;;;;;;;4.95;2.85;;;;;;;22.52;62.25;101724.94;5025061;28;20029;-74
2021/09/12 02:01:52;;;;;;;3.50;2.08;;;;;;;22.48;62.54;101717.94;5058150;28;20061;-73
2021/09/12 02:04:17;;;;;;;4.65;2.75;;;;;;;22.48;62.49;101711.78;5005003;28;20025;-73
2021/09/12 02:06:42;;;;;;;3.38;2.20;;;;;;;22.49;62.37;101717.06;5055215;28;20037;-74
2021/09/12 02:09:07;;;;;;;4.15;2.25;;;;;;;22.51;62.32;101731.09;5020529;28;20079;-74
2021/09/12 02:11:33;;;;;;;3.53;3.13;;;;;;;22.50;62.30;101717.94;5037146;28;20095;-74
2021/09/12 02:13:58;;;;;;;4.18;2.40;;;;;;;22.49;62.28;101717.06;5054653;28;20013;-74
2021/09/12 02:16:24;;;;;;;5.15;2.58;;;;;;;22.48;62.56;101715.31;5020298;28;20395;-74
2021/09/12 02:18:50;;;;;;;5.70;3.05;;;;;;;22.46;62.21;101714.44;5054343;28;20166;-74
2021/09/12 02:21:15;;;;;;;4.30;2.53;;;;;;;22.49;62.25;101721.44;5054783;28;20025;-73
2021/09/12 02:23:41;;;;;;;5.05;2.00;;;;;;;22.49;62.37;101732.88;5036517;28;20029;-73
2021/09/12 02:26:06;;;;;;;3.47;2.40;;;;;;;22.48;62.22;101723.22;5054383;28;20526;-73
2021/09/12 02:28:32;;;;;;;5.78;2.83;;;;;;;22.47;62.36;101724.09;5036456;28;20047;-74
2021/09/12 02:30:57;;;;;;;3.95;2.20;;;;;;;22.50;62.39;101731.97;5036480;28;20112;-74
2021/09/12 02:33:23;;;;;;;4.25;2.45;;;;;;;22.45;62.33;101724.13;5035994;28;20052;-73
2021/09/12 02:35:48;;;;;;;4.20;2.13;;;;;;;22.46;62.32;101727.59;5036496;28;20048;-73
2021/09/12 02:38:14;;;;;;;4.95;3.10;;;;;;;22.45;62.46;101728.53;5036331;28;20135;-73
2021/09/12 02:40:40;;;;;;;3.65;2.47;;;;;;;22.44;62.40;101732.91;5054172;28;20033;-73
2021/09/12 02:43:06;;;;;;;5.32;3.17;;;;;;;22.46;62.20;101739.03;5053806;28;20025;-74
2021/09/12 02:45:32;;;;;;;6.30;2.00;;;;;;;22.46;62.24;101735.53;5054037;28;20059;-74
2021/09/12 02:47:58;;;;;;;5.03;2.38;;;;;;;22.45;62.38;101739.94;5003129;28;20045;-74
2021/09/12 02:50:23;;;;;;;4.05;2.10;;;;;;;22.46;62.36;101739.03;5036127;28;20029;-73
2021/09/12 02:52:49;;;;;;;4.20;2.58;;;;;;;22.46;62.25;101735.53;5020155;28;20031;-73
2021/09/12 02:55:14;;;;;;;5.75;2.65;;;;;;;22.46;62.27;101735.53;5036195;28;20032;-73
2021/09/12 02:57:39;;;;;;;4.20;2.40;;;;;;;22.43;61.94;101731.16;5036462;28;20059;-73
2021/09/12 03:00:05;;;;;;;3.63;2.20;;;;;;;22.41;62.29;101727.66;5036018;28;20032;-74
2021/09/12 03:02:31;;;;;;;4.38;2.25;;;;;;;22.45;62.34;101726.78;5036127;28;20033;-74
2021/09/12 03:04:56;;;;;;;3.65;2.25;;;;;;;22.45;62.14;101739.06;5053513;28;20021;-74
2021/09/12 03:07:21;;;;;;;4.05;2.30;;;;;;;22.44;62.36;101735.56;5052663;28;20033;-74
2021/09/12 03:09:47;;;;;;;3.47;2.58;;;;;;;22.44;62.11;101732.91;5053821;28;20033;-74
2021/09/12 03:12:12;;;;;;;4.63;2.92;;;;;;;22.45;62.18;101739.06;5035582;28;20063;-74
2021/09/12 03:14:37;;;;;;;5.03;2.58;;;;;;;22.44;62.21;101737.31;5035500;28;20044;-74
2021/09/12 03:17:03;;;;;;;4.32;2.75;;;;;;;22.41;62.08;101734.69;5035709;28;20056;-74
2021/09/12 03:19:28;;;;;;;4.03;2.05;;;;;;;22.41;62.04;101732.06;5044967;28;20037;-73
2021/09/12 03:21:54;;;;;;;3.78;2.25;;;;;;;22.43;62.20;101728.53;5053576;28;20023;-74
2021/09/12 03:24:19;;;;;;;4.95;2.35;;;;;;;22.39;62.05;101718.91;5018805;28;20032;-73
2021/09/12 03:26:44;;;;;;;3.40;2.97;;;;;;;22.43;61.83;101730.28;5019095;28;20035;-74
2021/09/12 03:29:10;;;;;;;4.25;2.45;;;;;;;22.41;61.99;101719.75;5019054;28;20425;-73
2021/09/12 03:31:35;;;;;;;6.95;2.90;;;;;;;22.44;62.20;101729.41;5019361;28;20036;-73
2021/09/12 03:34:00;;;;;;;7.07;2.50;;;;;;;22.43;62.08;101731.16;5035724;28;20052;-73
2021/09/12 03:36:26;;;;;;;3.78;2.40;;;;;;;22.39;62.08;101728.56;5036589;28;20033;-73
2021/09/12 03:38:51;;;;;;;5.82;2.53;;;;;;;22.43;62.07;101739.06;5019432;28;20428;-73
2021/09/12 03:41:16;;;;;;;3.47;2.63;;;;;;;22.39;61.95;101728.56;5037832;28;20119;-73
2021/09/12 03:43:42;;;;;;;6.00;2.30;;;;;;;22.40;62.07;101728.53;5022603;28;20037;-73
2021/09/12 03:46:07;;;;;;;3.03;2.03;;;;;;;22.39;61.86;101728.56;5036955;28;20029;-73
2021/09/12 03:48:33;;;;;;;3.00;2.20;;;;;;;22.41;61.86;101740.84;5052231;28;20052;-73
2021/09/12 03:50:59;;;;;;;3.78;2.25;;;;;;;22.38;61.94;101730.31;5053362;28;20479;-73
2021/09/12 03:53:24;;;;;;;3.53;2.55;;;;;;;22.42;61.87;101744.34;5036448;28;20383;-74
2021/09/12 03:55:49;;;;;;;4.82;2.35;;;;;;;22.42;62.04;101741.72;5035566;28;20422;-73
2021/09/12 03:58:15;;;;;;;4.95;2.20;;;;;;;22.40;62.03;101736.47;5019540;28;20029;-73
2021/09/12 04:00:40;;;;;;;3.30;1.80;;;;;;;22.38;61.93;101734.72;5035541;28;20025;-73
2021/09/12 04:03:05;;;;;;;4.78;3.05;;;;;;;22.42;61.84;101739.97;5035636;28;20025;-73
2021/09/12 04:05:31;;;;;;;5.28;2.67;;;;;;;22.41;61.87;101732.94;5053574;28;20025;-73
2021/09/12 04:07:56;;;;;;;4.28;2.40;;;;;;;22.42;61.90;101736.44;5035164;28;20094;-73
2021/09/12 04:10:22;;;;;;;3.67;2.20;;;;;;;22.39;61.91;101729.44;5035251;28;20029;-73
2021/09/12 04:12:47;;;;;;;3.80;2.40;;;;;;;22.38;61.97;101727.69;5019014;28;20052;-73
2021/09/12 04:15:13;;;;;;;5.32;3.13;;;;;;;22.41;61.83;101735.56;5035323;28;20041;-73
2021/09/12 04:17:41;;;;;;;4.72;3.30;;;;;;;22.43;61.71;101738.19;5035279;28;20060;-73
2021/09/12 04:20:08;;;;;;;5.80;2.33;;;;;;;22.38;61.86;101730.31;5053123;28;20497;-73
2021/09/12 04:22:34;;;;;;;4.38;2.55;;;;;;;22.40;61.70;101739.09;5052818;28;20032;-73
2021/09/12 04:24:59;;;;;;;4.05;2.60;;;;;;;22.40;61.71;101727.66;5053136;28;20049;-73
2021/09/12 04:27:25;;;;;;;6.60;2.70;;;;;;;22.36;61.68;101729.44;5035385;28;20060;-73
2021/09/12 04:29:50;;;;;;;4.53;2.47;;;;;;;22.38;61.73;101732.06;5035127;28;20025;-73
2021/09/12 04:32:16;;;;;;;5.50;3.65;;;;;;;22.36;61.74;101716.28;5034519;28;20060;-73
2021/09/12 04:34:45;;;;;;;6.88;2.90;;;;;;;22.41;61.71;101726.78;5035130;28;20479;-73
2021/09/12 04:37:11;;;;;;;4.40;2.40;;;;;;;22.32;61.78;101706.66;5034911;28;20550;-73
2021/09/12 04:39:36;;;;;;;2.80;2.38;;;;;;;22.39;61.60;101723.28;5052628;28;20114;-73
2021/09/12 04:42:02;;;;;;;4.32;2.42;;;;;;;22.40;61.65;101725.91;5053039;28;20029;-73
2021/09/12 04:44:27;;;;;;;4.38;2.40;;;;;;;22.40;61.62;101728.53;5034506;28;20051;-73
2021/09/12 04:46:52;;;;;;;5.50;2.78;;;;;;;22.37;61.49;101728.56;5052683;28;20025;-73
2021/09/12 04:49:18;;;;;;;4.32;2.55;;;;;;;22.40;61.67;101735.56;5034536;28;20413;-73
2021/09/12 04:51:43;;;;;;;4.50;3.05;;;;;;;22.39;61.53;101737.34;5052215;28;20036;-73
2021/09/12 04:54:08;;;;;;;6.00;2.80;;;;;;;22.39;61.27;101728.56;5051206;28;20383;-73
2021/09/12 04:56:34;;;;;;;5.10;2.45;;;;;;;22.33;61.51;101718.06;5001926;28;20024;-73
2021/09/12 04:58:59;;;;;;;5.20;2.45;;;;;;;22.37;61.48;101727.69;5040800;28;20071;-73
2021/09/12 05:01:24;;;;;;;5.25;3.50;;;;;;;22.39;61.43;101723.28;5021400;28;20048;-73
2021/09/12 05:03:52;;;;;;;5.72;3.40;;;;;;;22.39;61.38;101728.56;5022534;28;20037;-73
2021/09/12 05:06:17;;;;;;;3.78;2.60;;;;;;;22.33;61.36;101723.34;5054585;28;20386;-73
2021/09/12 05:08:42;;;;;;;3.42;2.50;;;;;;;22.40;61.38;101736.47;5038064;28;20107;-73
2021/09/12 05:11:08;;;;;;;5.63;2.53;;;;;;;22.38;61.45;101735.59;5055686;28;20029;-73
2021/09/12 05:13:35;;;;;;;6.45;2.83;;;;;;;22.36;61.36;101728.56;5017969;28;20395;-73
2021/09/12 05:16:01;;;;;;;6.32;3.15;;;;;;;22.37;61.28;101728.56;5032650;28;20037;-73
2021/09/12 05:18:26;;;;;;;3.92;2.92;;;;;;;22.38;61.61;101738.22;5037851;28;20047;-73
2021/09/12 05:20:51;;;;;;;4.15;2.95;;;;;;;22.40;61.38;101741.72;5055534;28;20025;-74
2021/09/12 05:23:17;;;;;;;4.13;2.85;;;;;;;22.35;61.42;101732.09;5054429;28;20051;-74
2021/09/12 05:25:42;;;;;;;5.60;3.20;;;;;;;22.35;61.25;101746.13;5021099;28;20116;-74
2021/09/12 05:28:07;;;;;;;4.65;2.72;;;;;;;22.35;61.28;101743.50;5021085;28;20483;-74
2021/09/12 05:30:33;;;;;;;5.38;2.58;;;;;;;22.36;61.34;101744.38;5020792;28;20029;-74
2021/09/12 05:32:58;;;;;;;4.60;2.85;;;;;;;22.35;61.58;101735.59;5034124;28;20032;-73
2021/09/12 05:35:24;;;;;;;5.20;2.60;;;;;;;22.38;61.28;101738.22;5037663;28;20048;-74
2021/09/12 05:37:50;;;;;;;4.45;2.63;;;;;;;22.36;61.06;101740.00;5037094;28;20025;-74
2021/09/12 05:40:15;;;;;;;8.75;3.58;;;;;;;22.36;60.55;101737.34;5037986;28;20029;-77
2021/09/12 05:42:41;;;;;;;10.85;6.18;;;;;;;22.08;59.01;101741.91;5021399;28;20044;-74
2021/09/12 05:45:07;;;;;;;18.75;8.77;;;;;;;21.90;58.52;101749.03;5053891;28;20040;-74
2021/09/12 05:47:33;;;;;;;13.80;9.35;;;;;;;21.74;58.13;101742.94;5037425;28;20086;-74
2021/09/12 05:49:59;;;;;;;17.08;9.15;;;;;;;21.65;58.21;101740.34;5055256;28;20417;-73
2021/09/12 05:52:24;;;;;;;18.52;9.20;;;;;;;21.65;58.23;101749.13;5037075;28;20459;-74
2021/09/12 05:54:50;;;;;;;13.20;8.18;;;;;;;21.66;57.51;101753.53;5038588;28;20128;-73
2021/09/12 05:57:15;;;;;;;14.30;9.40;;;;;;;21.53;57.76;101743.03;5023431;28;20021;-73
2021/09/12 05:59:42;;;;;;;19.60;9.90;;;;;;;21.49;57.95;101760.59;5005381;28;20391;-73
2021/09/12 06:02:08;;;;;;;17.08;9.13;;;;;;;21.49;58.03;101762.34;5055170;28;20025;-73
2021/09/12 06:04:33;;;;;;;20.77;8.95;;;;;;;21.47;57.61;101759.72;5054976;28;20036;-73
2021/09/12 06:06:58;;;;;;;17.63;8.85;;;;;;;21.45;57.55;101753.56;5020608;28;20459;-73
2021/09/12 06:09:24;;;;;;;16.27;9.25;;;;;;;21.47;57.59;101757.06;5003951;28;20029;-73
2021/09/12 06:11:50;;;;;;;18.63;8.77;;;;;;;21.44;57.37;101766.72;5036874;28;20116;-73
2021/09/12 06:14:15;;;;;;;14.35;8.05;;;;;;;21.36;57.44;101754.47;5053144;28;20040;-73
2021/09/12 06:16:41;;;;;;;15.55;8.57;;;;;;;21.34;57.43;101753.59;5036740;28;20098;-73
2021/09/12 06:19:06;;;;;;;15.38;8.95;;;;;;;21.37;57.51;101768.50;5036941;28;20094;-73
2021/09/12 06:21:31;;;;;;;18.02;9.85;;;;;;;21.41;57.37;101764.13;5037011;28;20036;-72
2021/09/12 06:23:58;;;;;;;26.85;9.52;;;;;;;21.39;57.43;101753.59;5039490;28;20487;-75
2021/09/12 06:26:24;;;;;;;18.15;8.82;;;;;;;21.29;57.65;101755.34;5018478;28;20128;-73
2021/09/12 06:28:50;;;;;;;12.93;8.80;;;;;;;21.27;57.34;101754.50;5017034;28;20025;-77
2021/09/12 06:31:16;;;;;;;22.90;11.18;;;;;;;21.30;57.75;101766.75;5017136;28;20017;-75
2021/09/12 06:33:41;;;;;;;17.27;9.45;;;;;;;21.36;57.52;101774.66;5014878;28;20021;-73
2021/09/12 06:36:06;;;;;;;19.15;11.02;;;;;;;21.33;57.47;101770.25;5019703;28;20029;-73
2021/09/12 06:38:32;;;;;;;17.67;10.07;;;;;;;21.34;57.47;101764.13;5053194;28;20054;-73
2021/09/12 06:40:58;;;;;;;14.90;8.93;;;;;;;21.30;57.64;101774.66;5036370;28;20029;-73
2021/09/12 06:43:23;;;;;;;18.52;9.25;;;;;;;21.29;57.45;101762.41;5052776;28;20395;-73
2021/09/12 06:45:48;;;;;;;18.95;9.65;;;;;;;21.26;57.76;101770.28;5003458;28;20029;-73
2021/09/12 06:48:14;;;;;;;17.38;9.90;;;;;;;21.20;57.79;101762.41;4999792;28;20207;-72
2021/09/12 06:50:39;;;;;;;19.20;10.23;;;;;;;21.21;57.81;101772.03;5032928;28;20044;-72
2021/09/12 06:53:04;;;;;;;14.90;9.15;;;;;;;21.28;57.63;101772.03;5030718;28;20030;-72
2021/09/12 06:55:30;;;;;;;13.10;8.68;;;;;;;21.24;57.76;101778.19;5013095;28;20038;-72
2021/09/12 06:57:55;;;;;;;15.30;9.05;;;;;;;21.21;58.01;101770.28;4996641;28;20032;-72
2021/09/12 07:00:21;;;;;;;17.33;9.85;;;;;;;21.23;57.75;101770.28;4999014;28;20026;-72
2021/09/12 07:02:46;;;;;;;15.95;9.45;;;;;;;21.25;57.98;101771.16;5012761;28;20480;-72
2021/09/12 07:05:12;;;;;;;16.00;9.50;;;;;;;21.24;58.08;101777.31;5029403;28;20494;-73
2021/09/12 07:07:38;;;;;;;14.48;8.75;;;;;;;21.23;58.14;101776.44;5014201;28;20034;-73
2021/09/12 07:10:04;;;;;;;17.65;8.88;;;;;;;21.27;58.18;101778.19;5030415;28;20032;-72
2021/09/12 07:12:29;;;;;;;15.43;7.20;;;;;;;21.29;58.38;101779.03;5032508;28;20024;-72
2021/09/12 07:14:54;;;;;;;13.00;8.43;;;;;;;21.24;58.28;101782.56;5015938;28;20029;-73
2021/09/12 07:17:20;;;;;;;14.25;9.02;;;;;;;21.31;58.31;101789.56;5032257;28;20037;-73
2021/09/12 07:19:45;;;;;;;20.05;9.23;;;;;;;21.33;58.29;101786.06;5032166;28;20131;-72
2021/09/12 07:22:14;;;;;;;10.73;8.38;;;;;;;21.36;58.37;101788.69;5031786;28;20053;-72
2021/09/12 07:24:39;;;;;;;15.13;10.20;;;;;;;21.30;58.58;101783.41;5032258;28;20044;-72
2021/09/12 07:27:05;;;;;;;16.67;8.60;;;;;;;21.31;58.69;101786.94;5015617;28;20029;-72
2021/09/12 07:29:32;;;;;;;12.00;8.18;;;;;;;21.30;58.69;101780.78;5032085;28;20095;-73
2021/09/12 07:31:57;;;;;;;16.17;8.10;;;;;;;21.27;58.72;101783.44;5038676;28;20039;-73
2021/09/12 07:34:23;;;;;;;14.40;8.45;;;;;;;21.35;58.77;101792.19;5035560;28;20021;-72
2021/09/12 07:36:48;;;;;;;16.15;9.18;;;;;;;21.34;58.97;101790.44;5052186;28;20025;-73
2021/09/12 07:39:13;;;;;;;15.73;8.18;;;;;;;21.38;58.92;101791.31;5038416;28;20532;-75
2021/09/12 07:41:39;;;;;;;15.50;8.98;;;;;;;21.33;59.04;101787.81;4999786;28;20037;-75
2021/09/12 07:44:05;;;;;;;15.95;8.15;;;;;;;21.43;58.93;101796.53;5033351;28;20029;-75
2021/09/12 07:46:30;;;;;;;14.82;8.20;;;;;;;21.52;59.12;101801.81;5016147;28;20491;-77
2021/09/12 07:48:56;;;;;;;18.48;7.63;;;;;;;21.51;58.71;101800.94;5046034;28;20048;-73
2021/09/12 07:51:21;;;;;;;15.15;7.78;;;;;;;21.57;59.08;101803.53;5018795;28;20135;-73
2021/09/12 07:53:46;;;;;;;11.18;6.15;;;;;;;21.57;59.07;101808.81;5015273;28;20025;-72
2021/09/12 07:56:12;;;;;;;12.85;7.22;;;;;;;21.57;58.87;101789.50;5035025;28;20025;-73
2021/09/12 07:58:37;;;;;;;16.15;7.70;;;;;;;21.65;58.89;101800.91;5018747;28;20033;-74
2021/09/12 08:01:03;;;;;;;10.98;7.38;;;;;;;21.65;59.30;101806.16;5018103;28;20115;-74
2021/09/12 08:03:28;;;;;;;10.02;6.82;;;;;;;21.66;59.25;101803.53;5017936;28;20025;-74
2021/09/12 08:05:53;;;;;;;14.73;7.38;;;;;;;21.69;58.90;101798.22;5054025;28;20025;-74
2021/09/12 08:08:19;;;;;;;14.10;7.43;;;;;;;21.74;59.27;101804.38;5036420;28;20033;-73
2021/09/12 08:10:45;;;;;;;10.80;6.45;;;;;;;21.71;59.14;101804.38;5017529;28;20045;-74
2021/09/12 08:13:11;;;;;;;12.40;7.07;;;;;;;21.78;59.13;101810.50;5000994;28;20031;-73
2021/09/12 08:15:38;;;;;;;11.52;5.32;;;;;;;21.81;58.96;101812.25;5054804;28;20033;-74
2021/09/12 08:18:03;;;;;;;13.52;5.68;;;;;;;21.83;59.10;101816.63;5056059;28;20452;-74
2021/09/12 08:20:29;;;;;;;10.75;5.75;;;;;;;21.85;58.87;101808.72;5061640;28;20029;-74
2021/09/12 08:22:56;;;;;;;11.73;6.20;;;;;;;21.83;58.96;101811.34;5017892;28;20032;-73
2021/09/12 08:25:23;;;;;;;8.10;4.65;;;;;;;21.90;59.10;101828.03;5055821;28;20059;-74
2021/09/12 08:27:48;;;;;;;8.02;4.07;;;;;;;21.94;59.19;101832.41;5055994;28;20025;-74
2021/09/12 08:30:14;;;;;;;11.38;4.30;;;;;;;21.96;58.69;101827.97;5055388;28;20502;-74
2021/09/12 08:32:39;;;;;;;11.18;4.53;;;;;;;21.98;58.58;101831.50;5052928;28;20021;-73
2021/09/12 08:35:06;;;;;;;6.40;3.20;;;;;;;21.96;58.75;101825.34;5039443;28;20061;-74
2021/09/12 08:37:31;;;;;;;5.75;3.70;;;;;;;22.05;58.77;101836.78;5056672;28;20509;-74
2021/09/12 08:39:57;;;;;;;6.10;3.50;;;;;;;22.07;58.79;101837.63;5022351;28;20037;-74
2021/09/12 08:42:23;;;;;;;5.10;3.17;;;;;;;22.05;58.74;101833.28;5038500;28;20363;-75
2021/09/12 08:44:50;;;;;;;6.50;3.28;;;;;;;22.09;58.67;101835.00;5055147;28;20390;-75
2021/09/12 08:47:17;;;;;;;5.00;3.17;;;;;;;22.18;58.50;101844.63;5056401;28;20032;-74
2021/09/12 08:49:43;;;;;;;4.10;2.35;;;;;;;22.16;58.71;101843.75;5038084;28;20048;-74
2021/09/12 08:52:09;;;;;;;9.30;3.15;;;;;;;22.23;58.68;101843.72;5038646;28;20025;-75
2021/09/12 08:54:35;;;;;;;5.55;3.92;;;;;;;22.26;58.60;101848.09;5038957;28;20060;-74
2021/09/12 08:57:00;;;;;;;6.18;3.30;;;;;;;22.27;58.47;101840.19;5021787;28;20106;-74
2021/09/12 08:59:28;;;;;;;4.32;3.50;;;;;;;22.31;58.47;101843.69;5037711;28;20036;-74
2021/09/12 09:01:56;;;;;;;6.25;3.63;;;;;;;22.38;58.29;101856.81;5038507;28;20025;-75
2021/09/12 09:04:26;;;;;;;7.03;3.47;;;;;;;22.40;58.11;101856.81;5038369;28;20029;-74
2021/09/12 09:07:02;;;;;;;4.25;2.85;;;;;;;22.36;58.04;101845.41;5038534;28;20032;-74
2021/09/12 09:09:38;;;;;;;6.72;2.92;;;;;;;22.41;58.16;101859.44;5038454;28;20028;-74
2021/09/12 09:12:35;;;;;;;4.40;2.70;;;;;;;22.43;58.31;101859.44;5038366;28;20017;-74
2021/09/12 09:15:13;;;;;;;3.80;2.92;;;;;;;22.41;58.33;101854.16;5038310;28;20048;-74
2021/09/12 09:17:47;;;;;;;3.38;2.35;;;;;;;22.43;58.37;101849.78;5038107;28;20032;-74
2021/09/12 09:20:18;;;;;;;7.30;3.63;;;;;;;22.45;58.36;101857.69;5055890;28;20025;-75
2021/09/12 09:22:47;;;;;;;4.10;2.28;;;;;;;22.49;58.03;101855.88;5055864;28;20064;-74
2021/09/12 09:25:14;;;;;;;6.63;2.65;;;;;;;22.53;58.13;101868.16;5038187;28;20035;-74
2021/09/12 09:27:52;;;;;;;3.33;2.17;;;;;;;22.55;57.96;101862.00;5037750;28;20505;-74
2021/09/12 09:30:18;;;;;;;5.47;2.53;;;;;;;22.57;57.98;101867.28;5037830;28;20024;-73
2021/09/12 09:32:43;;;;;;;6.10;2.72;;;;;;;22.56;58.10;101869.03;5055792;28;20490;-75
2021/09/12 09:35:13;;;;;;;3.47;2.15;;;;;;;22.61;58.08;101868.97;5037830;28;20108;-75
2021/09/12 09:37:46;;;;;;;3.35;1.77;;;;;;;22.61;58.03;101866.34;5021644;28;20021;-74
2021/09/12 09:40:12;;;;;;;4.35;2.97;;;;;;;22.60;57.85;101864.59;5055610;28;20017;-75
2021/09/12 09:42:40;;;;;;;3.08;2.55;;;;;;;22.62;58.02;101868.97;5037749;28;20037;-74
2021/09/12 09:45:12;;;;;;;3.40;2.30;;;;;;;22.60;57.89;101870.75;5054812;28;20032;-74
2021/09/12 09:47:39;;;;;;;5.57;2.28;;;;;;;22.63;58.12;101873.38;5037460;28;20017;-74
2021/09/12 09:50:09;;;;;;;3.15;1.95;;;;;;;22.64;57.96;101872.50;5055580;28;20048;-74
2021/09/12 09:52:37;;;;;;;2.50;1.73;;;;;;;22.64;58.07;101875.13;5037673;28;20474;-74
2021/09/12 09:55:04;;;;;;;4.32;2.30;;;;;;;22.65;58.05;101870.72;5055233;28;20063;-74
2021/09/12 09:57:30;;;;;;;3.45;2.03;;;;;;;22.66;57.96;101865.44;5054922;28;20029;-74
2021/09/12 09:59:57;;;;;;;3.15;2.10;;;;;;;22.66;57.76;101876.00;5055116;28;20410;-74
2021/09/12 10:02:23;;;;;;;2.92;1.85;;;;;;;22.67;57.98;101871.59;5020913;28;20122;-74
2021/09/12 10:04:49;;;;;;;4.45;1.92;;;;;;;22.67;57.86;101879.50;5020332;28;20493;-74
2021/09/12 10:07:15;;;;;;;3.20;2.38;;;;;;;22.71;57.88;101884.78;5037147;28;20021;-74
2021/09/12 10:09:40;;;;;;;2.88;1.70;;;;;;;22.67;57.91;101877.75;5055153;28;20381;-75
2021/09/12 10:12:09;;;;;;;3.25;2.20;;;;;;;22.65;57.94;101876.00;5037176;28;20035;-74
2021/09/12 10:15:00;;;;;;;2.20;1.73;;;;;;;22.69;57.89;101886.53;5037153;28;20044;-74
2021/09/12 10:17:28;;;;;;;2.03;1.55;;;;;;;22.66;57.88;101878.63;5036723;28;20029;-75
2021/09/12 10:20:12;;;;;;;3.33;1.60;;;;;;;22.70;57.23;101884.78;5037721;28;20029;-75
2021/09/12 10:22:50;;;;;;;;;;;;;;;22.60;56.49;101888.31;5040881;28;20032;-74
2021/09/12 10:25:16;;;;;;;5.60;2.15;;;;;;;22.57;56.18;101880.47;5073069;28;19908;-73
2021/09/12 10:27:44;;;;;;;5.57;2.08;;;;;;;22.54;56.04;101883.97;5037059;28;20027;-73
2021/09/12 10:30:21;;;;;;;2.10;1.70;;;;;;;22.51;54.15;101891.03;5037282;28;20454;-73
2021/09/12 10:32:49;;;;;;;1.58;1.15;;;;;;;22.36;53.81;101886.69;5054651;28;20021;-74
2021/09/12 10:35:15;;;;;;;2.58;1.48;;;;;;;22.34;54.32;101889.34;5054704;28;20025;-73
2021/09/12 10:37:52;;;;;;;2.35;1.75;;;;;;;22.37;54.53;101878.78;5036749;28;20482;-74
2021/09/12 10:40:17;;;;;;;2.78;1.48;;;;;;;22.39;54.75;101873.50;5054407;28;20040;-73
2021/09/12 10:42:42;;;;;;;2.42;1.48;;;;;;;22.51;54.16;101883.13;5027452;28;20466;-73
2021/09/12 10:45:20;;;;;;;4.35;1.95;;;;;;;22.54;54.11;101880.47;5038684;28;20025;-73
2021/09/12 10:47:46;;;;;;;2.60;1.25;;;;;;;22.51;53.71;101868.16;5073506;28;20052;-73
2021/09/12 10:50:42;;;;;;;2.78;1.65;;;;;;;22.50;53.51;101861.16;5064064;28;20029;-73
2021/09/12 10:53:08;;;;;;;3.42;1.27;;;;;;;22.54;53.78;101875.19;5031095;28;20032;-73
2021/09/12 10:56:02;;;;;;;3.28;1.42;;;;;;;22.56;54.03;101882.22;5036065;28;20028;-73
2021/09/12 10:58:30;;;;;;;4.47;1.55;;;;;;;22.47;53.60;101874.34;5036465;28;20060;-75
2021/09/12 11:00:57;;;;;;;8.82;1.77;;;;;;;22.50;53.99;101870.81;5035724;28;20383;-74
2021/09/12 11:03:22;;;;;;;3.55;1.52;;;;;;;22.49;53.40;101871.69;5044707;28;20506;-74
2021/09/12 11:05:48;;;;;;;2.63;1.75;;;;;;;22.40;53.63;101873.50;5003163;28;20049;-74
2021/09/12 11:08:13;;;;;;;5.45;2.58;;;;;;;22.43;53.83;101876.13;5019499;28;20110;-75
2021/09/12 11:10:46;;;;;;;2.20;1.60;;;;;;;22.46;53.63;101891.03;5003207;28;20039;-74
2021/09/12 11:13:11;;;;;;;3.78;1.98;;;;;;;22.31;53.67;101888.50;5053573;28;20040;-73
2021/09/12 11:15:37;;;;;;;2.05;1.70;;;;;;;22.27;53.26;101881.47;5035401;28;20037;-74
2021/09/12 11:18:02;;;;;;;3.10;1.55;;;;;;;22.16;53.58;101881.53;5019176;28;20033;-74
2021/09/12 11:20:57;;;;;;;4.85;1.95;;;;;;;22.28;53.48;101885.84;5035712;28;20119;-74